Flight Track Log - Related Links

Times and Time Zones

All times are in EDT time to prevent confusion due to time zone crossing. See the AFR6725 flight status page for this flight to view local times or setup timezone preferences in your user account.

Time Position Orientation Groundspeed Altitude Reporting Facility
EDT Latitude Longitude Course Direction KTS MPH feet Rate Location/Type
Sat 04:26:17 AM 24.8950 -97.2570 12° North 509 586 41,000  Level FlightAware ADS-B
Sat 04:27:02 AM 25.0000 -97.2320 12° North 509 586 41,000  Level FlightAware ADS-B
Sat 04:27:42 AM 25.0920 -97.2100 12° North 506 582 41,000  Level FlightAware ADS-B
Sat 04:28:27 AM 25.1920 -97.1860 12° North 505 581 41,000  Level FlightAware ADS-B
Sat 04:29:07 AM 25.2850 -97.1640 12° North 506 582 41,000  Level FlightAware ADS-B
Sat 04:29:42 AM 25.3680 -97.1440 12° North 506 582 41,000  Level FlightAware ADS-B
Sat 04:30:32 AM 25.4810 -97.1170 12° North 507 583 41,000  Level FlightAware ADS-B
Sat 04:31:12 AM 25.5730 -97.0950 12° North 506 582 41,000  Level FlightAware ADS-B
Sat 04:31:57 AM 25.6730 -97.0730 11° North 505 581 41,000  Level FlightAware ADS-B
Sat 04:32:37 AM 25.7670 -97.0520 11° North 506 582 41,000  Level FlightAware ADS-B
Sat 04:33:17 AM 25.8590 -97.0320 11° North 508 585 41,000  Level FlightAware ADS-B
Sat 04:34:02 AM 25.9640 -97.0080 12° North 508 585 41,000  Level FlightAware ADS-B
Sat 04:34:42 AM 26.0550 -96.9870 12° North 512 589 41,000  Level FlightAware ADS-B
Sat 04:35:27 AM 26.1560 -96.9620 13° North 514 592 41,000  Level FlightAware ADS-B
Sat 04:36:07 AM 26.2530 -96.9380 13° North 515 593 41,000  Level FlightAware ADS-B
Sat 04:36:11 AM 26.2678 -96.9344 12° North 516 594 41,000  Level FlightAware ADS-B
Sat 04:36:52 AM 26.3580 -96.9120 13° North 514 592 41,000  Level FlightAware ADS-B
Sat 04:36:54 AM 26.3672 -96.9099 12° North 514 592 41,000  Level FlightAware ADS-B
Sat 04:37:25 AM 26.4396 -96.8920 12° North 514 592 41,000  Level FlightAware ADS-B
Sat 04:37:55 AM 26.5099 -96.8749 12° North 511 588 41,000  Level FlightAware ADS-B
Sat 04:38:26 AM 26.5816 -96.8572 12° North 509 586 41,000  Level FlightAware ADS-B
Sat 04:38:57 AM 26.6516 -96.8397 13° North 509 586 41,000  Level FlightAware ADS-B
Sat 04:39:27 AM 26.7217 -96.8224 12° North 509 586 41,000  Level FlightAware ADS-B
Sat 04:39:58 AM 26.7921 -96.8044 13° North 514 592 41,000  Level FlightAware ADS-B
Sat 04:40:18 AM 26.8385 -96.7898 16° North 521 600 41,000  Level FlightAware ADS-B
Sat 04:40:48 AM 26.9080 -96.7632 19° North 528 608 41,000  Level FlightAware ADS-B
Sat 04:41:18 AM 26.9782 -96.7334 21° North 531 611 41,000  Level FlightAware ADS-B
Sat 04:41:52 AM 27.0562 -96.6988 22° Northeast 535 616 41,000  Level FlightAware ADS-B
Sat 04:42:23 AM 27.1257 -96.6676 22° Northeast 538 619 41,000  Level FlightAware ADS-B
Sat 04:42:53 AM 27.1955 -96.6361 22° Northeast 542 624 41,000  Level FlightAware ADS-B
Sat 04:43:23 AM 27.2671 -96.6035 22° Northeast 544 626 41,000  Level FlightAware ADS-B
Sat 04:43:54 AM 27.3382 -96.5711 22° Northeast 543 625 41,000  Level FlightAware ADS-B
Sat 04:44:24 AM 27.4091 -96.5385 22° Northeast 542 624 41,000  Level FlightAware ADS-B
Sat 04:44:56 AM 27.4826 -96.5048 22° Northeast 542 624 41,000  Level FlightAware ADS-B
Sat 04:45:26 AM 27.5522 -96.4729 22° Northeast 533 613 41,000  Level FlightAware ADS-B
Sat 04:45:56 AM 27.6210 -96.4421 22° Northeast 526 605 41,000  Level FlightAware ADS-B
Sat 04:46:27 AM 27.6902 -96.4108 22° Northeast 526 605 41,000 -492 Level FlightAware ADS-B
Sat 04:46:57 AM 27.7581 -96.3791 22° Northeast 527 606 40,500 -1,100 Descending FlightAware ADS-B
Sat 04:47:27 AM 27.8264 -96.3476 22° Northeast 527 606 39,900 -1,180 Descending FlightAware ADS-B
Sat 04:47:58 AM 27.8954 -96.3158 22° Northeast 528 608 39,300 -1,179 Descending FlightAware ADS-B
Sat 04:48:23 AM 27.9522 -96.2901 22° Northeast 526 605 38,800 -1,527 Descending FlightAware ADS-B
Sat 04:48:53 AM 28.0201 -96.2594 22° Northeast 524 603 37,900 -2,200 Descending FlightAware ADS-B
Sat 04:49:23 AM 28.0888 -96.2277 22° Northeast 528 608 36,600 -2,500 Descending FlightAware ADS-B
Sat 04:49:53 AM 28.1565 -96.1955 23° Northeast 530 610 35,400 -1,967 Descending FlightAware ADS-B
Sat 04:50:24 AM 28.2247 -96.1630 23° Northeast 519 597 34,600 -1,574 Descending FlightAware ADS-B
Sat 04:50:54 AM 28.2919 -96.1315 22° Northeast 513 590 33,800 -2,000 Descending FlightAware ADS-B
Sat 04:51:24 AM 28.3579 -96.1009 22° Northeast 512 589 32,600 -2,262 Descending FlightAware ADS-B
Sat 04:51:55 AM 28.4240 -96.0704 22° Northeast 512 589 31,500 -2,164 Descending FlightAware ADS-B
Sat 04:52:25 AM 28.4898 -96.0399 22° Northeast 509 586 30,400 -2,300 Descending FlightAware ADS-B
Sat 04:52:55 AM 28.5557 -96.0094 22° Northeast 504 580 29,200 -2,444 Descending FlightAware ADS-B
Sat 04:53:19 AM 28.6077 -95.9853 22° Northeast 499 574 28,200 -2,087 Descending FlightAware ADS-B
Sat 04:53:41 AM 28.6547 -95.9670 19° North 488 562 27,600 -1,667 Descending FlightAware ADS-B
Sat 04:53:55 AM 28.6864 -95.9569 16° North 479 551 27,200 -1,667 Descending FlightAware ADS-B
Sat 04:54:17 AM 28.7331 -95.9452 12° North 469 540 26,600 -1,698 Descending FlightAware ADS-B
Sat 04:54:48 AM 28.7980 -95.9321 10° North 464 534 25,700 -2,066 Descending FlightAware ADS-B
Sat 04:55:18 AM 28.8627 -95.9195 10° North 465 535 24,500 -2,300 Descending FlightAware ADS-B
Sat 04:55:48 AM 28.9266 -95.9068 10° North 463 533 23,400 -2,066 Descending FlightAware ADS-B
Sat 04:56:19 AM 28.9901 -95.8939 10° North 456 525 22,400 -2,066 Descending FlightAware ADS-B
Sat 04:56:49 AM 29.0526 -95.8809 10° North 445 512 21,300 -2,500 Descending FlightAware ADS-B
Sat 04:57:19 AM 29.1134 -95.8682 10° North 435 501 19,900 -2,476 Descending FlightAware ADS-B
Sat 04:57:52 AM 29.1740 -95.8560 10° North 424 488 18,700 -2,229 Descending FlightAware ADS-B
Sat 04:57:54 AM 29.1803 -95.8542 14° North 422 486 18,600 -2,400 Descending FlightAware ADS-B
Sat 04:58:32 AM 29.2480 -95.8400 10° North 407 468 17,100 -2,377 Descending FlightAware ADS-B
Sat 04:58:47 AM 29.2798 -95.8333 10° North 402 463 16,500 -2,250 Descending FlightAware ADS-B
Sat 04:59:36 AM 29.3683 -95.8148 10° North 399 459 14,700 -2,341 Descending FlightAware ADS-B
Sat 05:00:09 AM 29.4255 -95.8029 10° North 373 429 13,300 -2,250 Descending FlightAware ADS-B
Sat 05:00:40 AM 29.4766 -95.7922 10° North 363 418 12,300 -1,562 Descending FlightAware ADS-B
Sat 05:01:22 AM 29.5420 -95.7780 11° North 344 396 11,400 -1,250 Descending FlightAware ADS-B
Sat 05:01:28 AM 29.5551 -95.7756 North 359 413 11,300 -833 Descending FlightAware ADS-B
Sat 05:01:58 AM 29.6002 -95.7654 11° North 320 368 10,900 -677 Descending FlightAware ADS-B
Sat 05:02:30 AM 29.6441 -95.7563 10° North 297 342 10,600 -774 Descending FlightAware ADS-B
Sat 05:03:00 AM 29.6843 -95.7479 10° North 283 326 10,100 -1,200 Descending FlightAware ADS-B
Sat 05:03:15 AM 29.7039 -95.7437 11° North 286 329 9,700 -1,355 Descending FlightAware ADS-B
Sat 05:03:31 AM 29.7237 -95.7397 10° North 286 329 9,400 -1,161 Descending FlightAware ADS-B
Sat 05:03:46 AM 29.7437 -95.7355 10° North 283 326 9,100 -1,333 Descending FlightAware ADS-B
Sat 05:03:58 AM 29.7598 -95.7322 10° North 282 325 8,800 -1,500 Descending FlightAware ADS-B
Sat 05:04:14 AM 29.7793 -95.7278 11° North 284 327 8,400 -1,241 Descending FlightAware ADS-B
Sat 05:04:27 AM 29.7960 -95.7238 12° North 282 325 8,200 -1,111 Descending FlightAware ADS-B
Sat 05:04:41 AM 29.8148 -95.7193 12° North 276 318 7,900 -1,200 Descending FlightAware ADS-B
Sat 05:04:57 AM 29.8347 -95.7153 10° North 273 314 7,600 -1,091 Descending FlightAware ADS-B
Sat 05:05:14 AM 29.8547 -95.7113 10° North 270 311 7,300 -1,125 Descending FlightAware ADS-B
Sat 05:05:29 AM 29.8737 -95.7074 10° North 267 307 7,000 -1,385 Descending FlightAware ADS-B
Sat 05:05:40 AM 29.8876 -95.7045 10° North 268 308 6,700 -1,448 Descending FlightAware ADS-B
Sat 05:05:58 AM 29.9089 -95.7005 North 268 308 6,300 -1,333 Descending FlightAware ADS-B
Sat 05:06:16 AM 29.9309 -95.6962 10° North 269 310 5,900 -1,364 Descending FlightAware ADS-B
Sat 05:06:20 AM 29.9365 -95.6947 13° North 271 312 5,800 -1,333 Descending FlightAware ADS-B
Sat 05:06:25 AM 29.9420 -95.6927 17° North 272 313 5,700 -1,333 Descending FlightAware ADS-B
Sat 05:06:29 AM 29.9467 -95.6903 24° Northeast 273 314 5,600 -1,500 Descending FlightAware ADS-B
Sat 05:06:33 AM 29.9513 -95.6871 31° Northeast 277 319 5,500 -1,800 Descending FlightAware ADS-B
Sat 05:06:39 AM 29.9571 -95.6817 39° Northeast 280 322 5,300 -1,200 Descending FlightAware ADS-B
Sat 05:06:43 AM 29.9608 -95.6773 46° Northeast 280 322 5,300 -667 Level FlightAware ADS-B
Sat 05:06:48 AM 29.9646 -95.6716 52° Northeast 279 321 5,200 -1,333 Descending FlightAware ADS-B
Sat 05:06:52 AM 29.9673 -95.6666 58° Northeast 278 320 5,100 -1,333 Descending FlightAware ADS-B
Sat 05:06:57 AM 29.9701 -95.6601 64° Northeast 278 320 5,000 -1,364 Descending FlightAware ADS-B
Sat 05:07:14 AM 29.9790 -95.6369 66° East 264 304 4,600 -882 Descending FlightAware ADS-B
Sat 05:07:31 AM 29.9868 -95.6161 67° East 241 277 4,500 -571 Descending FlightAware ADS-B
Sat 05:07:35 AM 29.9879 -95.6124 71° East 239 275 4,400 -1,000 Descending FlightAware ADS-B
Sat 05:07:43 AM 29.9903 -95.6014 76° East 236 272 4,300 -947 Descending FlightAware ADS-B
Sat 05:07:54 AM 29.9922 -95.5884 80° East 229 264 4,100 -1,200 Descending FlightAware ADS-B
Sat 05:07:58 AM 29.9927 -95.5836 83° East 227 261 4,000 -1,385 Descending FlightAware ADS-B
Sat 05:08:07 AM 29.9932 -95.5722 87° East 226 260 3,800 -1,385 Descending FlightAware ADS-B
Sat 05:08:24 AM 29.9931 -95.5524 90° East 219 252 3,400 -1,273 Descending FlightAware ADS-B
Sat 05:08:40 AM 29.9930 -95.5344 90° East 211 243 3,100 -1,333 Descending FlightAware ADS-B
Sat 05:09:00 AM 29.9929 -95.5121 90° East 207 238 2,600 -1,200 Descending FlightAware ADS-B
Sat 05:09:10 AM 29.9930 -95.5013 89° East 199 229 2,500 -857 Descending FlightAware ADS-B
Sat 05:09:21 AM 29.9932 -95.4903 89° East 195 224 2,300 -1,111 Descending FlightAware ADS-B
Sat 05:09:37 AM 29.9933 -95.4736 90° East 190 219 2,000 -889 Descending FlightAware ADS-B
Sat 05:09:48 AM 29.9933 -95.4628 90° East 181 208 1,900 -923 Descending FlightAware ADS-B
Sat 05:10:03 AM 29.9933 -95.4483 90° East 174 200 1,600 -1,059 Descending FlightAware ADS-B
Sat 05:10:22 AM 29.9933 -95.4314 90° East 161 185 1,300 -667 Descending FlightAware ADS-B
Sat 05:10:39 AM 29.9933 -95.4171 90° East 150 173 1,200 -692 Descending FlightAware ADS-B
Sat 05:10:48 AM 29.9934 -95.4102 89° East 152 175 1,000 -1,043 Descending FlightAware ADS-B
Sat 05:11:02 AM 29.9933 -95.3983 91° East 151 174 800 -800 Descending FlightAware ADS-B
Sat 05:11:18 AM 29.9934 -95.3856 89° East 152 175 600 -800 Descending FlightAware ADS-B
Sat 05:11:32 AM 29.9934 -95.3744 90° East 150 173 400 -774 Descending FlightAware ADS-B
Sat 05:11:49 AM 29.9935 -95.3607 90° East 150 173 200 -643 Descending FlightAware ADS-B
Sat 05:12:00 AM 29.9934 -95.3523 91° East 150 173 100 -545 Descending FlightAware ADS-B

Login

Don't have an account? Register now (free) for customized features, flight alerts, and more!